EDT,Max TemperatureF,Mean TemperatureF,Min TemperatureF,Max Dew PointF,MeanDew PointF,Min DewpointF,Max Humidity, Mean Humidity, Min Humidity, Max Sea Level PressureIn, Mean Sea Level PressureIn, Min Sea Level PressureIn, Max VisibilityMiles, Mean VisibilityMiles, Min VisibilityMiles, Max Wind SpeedMPH, Mean Wind SpeedMPH, Max Gust SpeedMPH,PrecipitationIn, CloudCover, Events, WindDirDegrees
2013-8-1,79,67,55,64,59,52,93,76,58,30.06,29.93,29.85,10,10,4,14,6,20,0.21,4,,157
2013-8-2,79,70,61,63,57,52,100,72,43,29.87,29.84,29.81,10,9,2,14,6,20,0.00,4,,232
2013-8-3,75,66,57,57,55,50,100,72,43,29.87,29.84,29.81,10,10,3,13,6,24,0.23,5,,242
2013-8-4,70,61,52,61,55,52,100,80,59,29.96,29.88,29.84,10,9,0,13,4,24,0.81,5,Thunderstorm,131
2013-8-5,70,59,48,52,46,37,100,67,34,30.08,30.02,29.96,10,10,0,14,7,23,0.00,1,,337
2013-8-6,73,60,46,57,50,45,93,70,46,30.14,30.12,30.08,10,10,7,12,5,,0.00,0,,137
2013-8-7,79,68,57,57,55,52,84,65,45,30.16,30.11,30.05,10,10,10,12,8,18,0.00,6,,145
2013-8-8,81,74,66,70,64,57,87,75,62,30.05,30.01,29.98,10,10,4,12,6,18,0.00,7,,149
2013-8-9,73,72,70,72,69,66,100,92,84,29.98,29.87,29.79,10,9,2,12,4,,0.53,6,Thunderstorm,149
2013-8-10,73,64,54,66,53,45,93,66,38,30.06,29.94,29.84,10,10,10,14,7,21,0.00,1,,295
2013-8-11,73,61,48,55,51,46,93,69,44,30.12,30.07,30.01,10,10,10,8,5,,0.00,2,,170
2013-8-12,75,64,52,61,55,50,96,73,49,30.05,29.99,29.92,10,10,10,10,4,,0.00,2,,146
2013-8-13,66,64,61,63,60,55,100,89,78,29.91,29.79,29.71,10,8,1,9,5,,0.22,7,,147
2013-8-14,68,59,50,63,52,48,93,74,55,29.99,29.82,29.72,10,10,2,14,7,21,0.05,6,,264
2013-8-15,70,58,46,54,48,43,93,70,47,30.09,30.05,30.00,10,10,10,14,9,18,0.00,2,,202
2013-8-16,73,64,54,57,53,48,86,66,46,30.22,30.17,30.14,10,10,10,9,5,,0.00,2,,212
2013-8-17,75,63,50,59,53,48,93,70,46,30.31,30.28,30.23,10,10,10,10,6,,0.00,0,,94
2013-8-18,73,64,54,63,56,52,93,73,53,30.29,30.23,30.12,10,10,10,10,4,,0.00,0,,154
2013-8-19,79,67,54,63,58,52,93,73,52,30.11,30.05,29.99,10,10,10,10,5,,0.00,0,,158
2013-8-20,81,68,55,64,59,54,93,72,51,30.14,30.09,30.04,10,10,4,9,6,,0.00,0,,157
2013-8-21,82,70,57,64,60,55,93,70,47,30.19,30.12,30.04,10,10,6,12,6,,0.00,0,,172
2013-8-22,82,71,59,64,61,57,97,72,47,30.06,29.95,29.84,10,9,4,10,6,18,0.06,2,Thunderstorm,183
2013-8-23,70,61,52,64,54,45,100,72,44,30.20,30.05,29.91,10,9,1,13,6,22,0.00,3,,346
2013-8-24,73,59,45,55,48,43,93,67,41,30.36,30.31,30.20,10,10,6,10,5,,0.00,0,,132
2013-8-25,75,61,46,59,52,45,93,67,41,30.39,30.30,30.17,10,10,9,10,5,16,0.00,0,,158
2013-8-26,99,99,99,66,61,57,99,99,99,30.18,30.02,29.92,10,10,4,10,4,20,0.02,8,,188
2013-8-27,79,72,64,68,66,63,100,81,62,29.95,29.91,29.88,10,7,0,8,3,,0.00,4,,340
2013-8-28,82,71,59,68,64,59,100,78,55,29.98,29.91,29.86,10,9,0,14,6,20,0.74,3,Thunderstorm,108
2013-8-29,77,69,61,63,61,57,97,79,60,30.08,30.03,29.98,10,10,10,14,9,21,0.00,4,,137
2013-8-30,81,71,61,66,63,61,93,76,58,30.03,29.92,29.82,10,10,9,9,3,,0.00,4,,201
2013-8-31,77,72,66,72,68,64,100,91,82,29.84,29.81,29.77,10,8,0,7,3,,0.20,7,,151